createdAt,value
2023-02-24T00:02:06.262Z,24.33
2023-02-24T00:04:39.918Z,26.35
2023-02-24T00:07:08.423Z,30.90
2023-02-24T00:09:35.671Z,28.97
2023-02-24T00:12:06.257Z,25.83
2023-02-24T00:14:35.119Z,27.52
2023-02-24T00:17:02.705Z,28.67
2023-02-24T00:19:34.002Z,22.52
2023-02-24T00:22:02.539Z,25.23
2023-02-24T00:24:29.873Z,30.27
2023-02-24T00:27:01.864Z,20.85
2023-02-24T00:29:29.825Z,28.08
2023-02-24T00:32:01.529Z,27.67
2023-02-24T00:34:34.037Z,26.70
2023-02-24T00:37:02.118Z,29.67
2023-02-24T00:39:35.280Z,26.45
2023-02-24T00:42:07.400Z,28.58
2023-02-24T00:44:38.592Z,36.50
2023-02-24T00:47:07.613Z,28.13
2023-02-24T00:49:42.273Z,29.67
2023-02-24T00:52:16.034Z,28.48
2023-02-24T00:54:45.141Z,26.25
2023-02-24T00:57:12.555Z,28.92
2023-02-24T00:59:39.987Z,29.17
2023-02-24T01:02:07.684Z,29.83
2023-02-24T01:04:35.383Z,29.40
2023-02-24T01:07:02.317Z,29.02
2023-02-24T01:09:31.485Z,28.77
2023-02-24T01:12:22.326Z,30.92
2023-02-24T01:14:51.769Z,26.30
2023-02-24T01:17:20.822Z,29.85
2023-02-24T01:19:49.690Z,33.65
2023-02-24T01:22:21.054Z,28.35
2023-02-24T01:24:48.857Z,26.58
2023-02-24T01:27:19.045Z,29.13
2023-02-24T01:29:49.656Z,27.27
2023-02-24T01:32:21.587Z,27.95
2023-02-24T01:34:52.200Z,25.80
2023-02-24T01:37:19.700Z,23.83
2023-02-24T01:39:46.947Z,25.77
2023-02-24T01:42:19.686Z,28.88
2023-02-24T01:44:47.775Z,21.73
2023-02-24T01:47:18.376Z,26.60
2023-02-24T01:49:47.528Z,22.58
2023-02-24T01:52:14.416Z,27.77
2023-02-24T01:54:52.000Z,27.20
2023-02-24T01:57:20.652Z,27.17
2023-02-24T01:59:49.359Z,26.27
2023-02-24T02:02:17.252Z,29.00
2023-02-24T02:05:01.930Z,21.35
2023-02-24T02:07:30.277Z,35.80
2023-02-24T02:10:04.122Z,22.65
2023-02-24T02:12:37.149Z,22.23
2023-02-24T02:15:06.321Z,28.95
2023-02-24T02:17:36.939Z,25.83
2023-02-24T02:20:42.775Z,19.65
2023-02-24T02:23:47.388Z,25.35
2023-02-24T02:26:32.613Z,26.70
2023-02-24T02:29:46.996Z,24.80
2023-02-24T02:32:20.018Z,26.02
2023-02-24T02:35:03.860Z,22.30
2023-02-24T02:37:35.260Z,24.13
2023-02-24T02:40:21.097Z,29.23
2023-02-24T02:42:51.854Z,27.95
2023-02-24T02:45:27.844Z,22.88
2023-02-24T02:48:03.142Z,22.15
2023-02-24T02:50:48.113Z,24.33
2023-02-24T02:53:24.973Z,22.27
2023-02-24T02:56:15.073Z,17.85
2023-02-24T02:58:54.576Z,21.42
2023-02-24T03:01:26.744Z,20.83
2023-02-24T03:03:59.182Z,16.33
2023-02-24T03:06:33.341Z,19.02
2023-02-24T03:09:11.412Z,17.87
2023-02-24T03:11:41.408Z,20.23
2023-02-24T03:14:12.416Z,14.85
2023-02-24T03:16:46.219Z,23.73
2023-02-24T03:19:20.573Z,20.85
2023-02-24T03:22:02.085Z,17.35
2023-02-24T03:24:29.531Z,23.17
2023-02-24T03:27:24.556Z,23.77
2023-02-24T03:29:58.521Z,23.23
2023-02-24T03:32:36.618Z,21.27
2023-02-24T03:35:24.136Z,20.80
2023-02-24T03:37:53.301Z,18.97
2023-02-24T03:40:21.127Z,22.20
2023-02-24T03:42:57.620Z,24.08
2023-02-24T03:45:27.928Z,23.63
2023-02-24T03:47:56.105Z,20.52
2023-02-24T03:50:23.459Z,24.73
2023-02-24T03:53:11.824Z,23.50
2023-02-24T03:56:11.525Z,19.65
2023-02-24T03:59:18.711Z,27.52
2023-02-24T04:02:06.441Z,20.88
2023-02-24T04:05:03.220Z,18.23
2023-02-24T04:07:55.432Z,25.00
2023-02-24T04:10:24.234Z,23.73
2023-02-24T04:13:02.103Z,21.02
2023-02-24T04:15:43.806Z,22.35
2023-02-24T04:18:27.380Z,16.40
2023-02-24T04:20:56.801Z,19.03
2023-02-24T04:23:30.099Z,21.17
2023-02-24T04:25:57.376Z,18.15
2023-02-24T04:28:27.504Z,24.98
2023-02-24T04:31:01.547Z,25.50
2023-02-24T04:33:28.597Z,18.88
2023-02-24T04:35:56.132Z,20.70
2023-02-24T04:38:23.792Z,21.73
2023-02-24T04:40:51.424Z,19.75
2023-02-24T04:43:18.588Z,19.73
2023-02-24T04:45:45.878Z,19.67
2023-02-24T04:48:13.167Z,18.55
2023-02-24T04:50:43.523Z,18.93
2023-02-24T04:53:16.297Z,27.17
2023-02-24T04:55:48.777Z,21.73
2023-02-24T04:58:28.169Z,21.55
2023-02-24T05:00:55.977Z,20.23
2023-02-24T05:03:28.223Z,21.55
2023-02-24T05:06:00.053Z,21.65
2023-02-24T05:08:29.764Z,19.05
2023-02-24T05:10:58.684Z,18.80
2023-02-24T05:13:29.010Z,19.33
2023-02-24T05:15:59.577Z,19.53
2023-02-24T05:18:29.645Z,26.50
2023-02-24T05:21:15.471Z,29.42
2023-02-24T05:23:45.356Z,21.83
2023-02-24T05:26:20.494Z,21.73
2023-02-24T05:28:49.430Z,23.50
2023-02-24T05:31:28.864Z,19.95
2023-02-24T05:34:02.770Z,22.67
2023-02-24T05:36:36.317Z,21.10
2023-02-24T05:39:07.582Z,19.42
2023-02-24T05:41:37.822Z,21.00
2023-02-24T05:44:09.346Z,26.67
2023-02-24T05:46:39.179Z,24.98
2023-02-24T05:49:11.780Z,32.00
2023-02-24T05:51:39.362Z,22.35
2023-02-24T05:54:11.476Z,21.97
2023-02-24T05:56:40.209Z,23.90
2023-02-24T05:59:10.861Z,21.90
2023-02-24T06:01:45.812Z,24.05
2023-02-24T06:04:20.974Z,31.17
2023-02-24T06:06:55.369Z,25.58
2023-02-24T06:09:23.479Z,26.70
2023-02-24T06:11:51.013Z,27.87
2023-02-24T06:14:18.293Z,26.90
2023-02-24T06:16:45.212Z,24.70
2023-02-24T06:19:13.618Z,26.63
2023-02-24T06:21:42.136Z,23.77
2023-02-24T06:24:14.631Z,23.70
2023-02-24T06:26:45.964Z,28.33
2023-02-24T06:29:17.392Z,27.50
2023-02-24T06:31:45.235Z,23.40
2023-02-24T06:34:18.365Z,26.23
2023-02-24T06:36:47.019Z,27.87
2023-02-24T06:39:14.693Z,23.25
2023-02-24T06:41:42.665Z,24.30
2023-02-24T06:44:09.632Z,32.60
2023-02-24T06:46:37.337Z,25.08
2023-02-24T06:49:04.400Z,25.17
2023-02-24T06:51:31.303Z,19.65
2023-02-24T06:53:59.539Z,21.77
2023-02-24T06:56:27.836Z,23.27
2023-02-24T06:58:56.489Z,22.27
2023-02-24T07:01:26.005Z,13.88
2023-02-24T07:04:03.613Z,22.35
2023-02-24T07:06:41.009Z,17.10
2023-02-24T07:09:13.780Z,24.33
2023-02-24T07:11:44.575Z,21.25
2023-02-24T07:14:13.474Z,18.90
2023-02-24T07:16:45.341Z,15.82
2023-02-24T07:19:14.604Z,18.55
2023-02-24T07:21:50.237Z,17.05
2023-02-24T07:24:25.054Z,20.63
2023-02-24T07:26:57.502Z,21.88
2023-02-24T07:29:26.165Z,16.17
2023-02-24T07:31:56.594Z,25.45
2023-02-24T07:34:25.311Z,29.67
2023-02-24T07:36:54.591Z,22.65
2023-02-24T07:39:25.760Z,28.00
2023-02-24T07:41:55.142Z,23.83
2023-02-24T07:44:24.297Z,28.55
2023-02-24T07:46:51.620Z,26.35
2023-02-24T07:49:23.397Z,22.65
2023-02-24T07:51:53.023Z,23.42
2023-02-24T07:54:22.033Z,22.23
2023-02-24T07:56:56.801Z,27.90
2023-02-24T07:59:28.989Z,27.75
2023-02-24T08:01:56.481Z,24.92
2023-02-24T08:04:27.397Z,28.15
2023-02-24T08:06:57.580Z,23.70
2023-02-24T08:09:45.141Z,23.65
2023-02-24T08:12:18.205Z,23.30
2023-02-24T08:14:50.868Z,24.52
2023-02-24T08:17:20.620Z,23.37
2023-02-24T08:19:49.236Z,27.83
2023-02-24T08:22:20.516Z,21.60
2023-02-24T08:25:00.742Z,29.10
2023-02-24T08:27:30.397Z,20.37
2023-02-24T08:29:59.850Z,21.70
2023-02-24T08:32:34.078Z,20.73
2023-02-24T08:35:14.637Z,15.40
2023-02-24T08:37:50.603Z,24.42
2023-02-24T08:40:32.799Z,21.95
2023-02-24T08:43:19.497Z,30.30
2023-02-24T08:45:52.436Z,17.00
2023-02-24T08:48:32.416Z,19.45
2023-02-24T08:51:02.362Z,19.90
2023-02-24T08:53:32.230Z,21.23
2023-02-24T08:56:01.138Z,14.88
2023-02-24T08:58:28.451Z,16.13
2023-02-24T09:00:59.149Z,10.32
2023-02-24T09:03:29.644Z,15.50
2023-02-24T09:06:08.822Z,10.27
2023-02-24T09:08:41.527Z,12.00
2023-02-24T09:11:13.996Z,14.20
2023-02-24T09:13:51.819Z,10.00
2023-02-24T09:16:23.788Z,13.45
2023-02-24T09:19:10.255Z,15.18
2023-02-24T09:21:58.533Z,14.40
2023-02-24T09:24:28.401Z,10.60
2023-02-24T09:26:58.685Z,15.45
2023-02-24T09:29:35.665Z,13.02
2023-02-24T09:32:06.715Z,10.13
2023-02-24T09:34:37.144Z,10.05
2023-02-24T09:37:05.318Z,11.05
2023-02-24T09:39:54.711Z,12.95
2023-02-24T09:42:34.047Z,8.20
2023-02-24T09:45:12.704Z,9.85
2023-02-24T09:47:55.770Z,9.98
2023-02-24T09:50:59.145Z,13.43
2023-02-24T09:53:18.311Z,12.50
2023-02-24T09:56:03.912Z,7.53
2023-02-24T09:58:49.426Z,14.27
2023-02-24T10:01:33.269Z,11.80
2023-02-24T10:04:27.467Z,11.27
2023-02-24T10:07:12.396Z,10.70
2023-02-24T10:09:48.126Z,10.23
2023-02-24T10:12:24.094Z,13.02
2023-02-24T10:15:32.357Z,10.53
2023-02-24T10:18:27.227Z,10.80
2023-02-24T10:21:15.604Z,9.68
2023-02-24T10:24:14.517Z,8.70
2023-02-24T10:27:00.742Z,8.07
2023-02-24T10:30:04.498Z,9.60
2023-02-24T10:32:47.891Z,7.20
2023-02-24T10:35:17.628Z,9.95
2023-02-24T10:37:44.929Z,8.05
2023-02-24T10:40:17.479Z,11.20
2023-02-24T10:42:48.898Z,9.48
2023-02-24T10:45:26.761Z,8.30
2023-02-24T10:47:59.459Z,10.23
2023-02-24T10:50:55.032Z,9.95
2023-02-24T10:53:34.773Z,11.50
2023-02-24T10:56:27.359Z,10.05
2023-02-24T10:59:20.982Z,10.98
2023-02-24T11:02:24.781Z,11.60
2023-02-24T11:05:04.633Z,8.02
2023-02-24T11:07:53.696Z,7.25
2023-02-24T11:10:32.775Z,8.80
2023-02-24T11:13:20.062Z,7.30
2023-02-24T11:16:12.166Z,12.27
2023-02-24T11:18:40.387Z,5.57
2023-02-24T11:21:10.980Z,10.10
2023-02-24T11:23:43.257Z,8.60
2023-02-24T11:26:23.770Z,11.53
2023-02-24T11:29:13.678Z,8.38
2023-02-24T11:32:17.004Z,9.43
2023-02-24T11:34:55.726Z,10.68
2023-02-24T11:37:43.572Z,7.82
2023-02-24T11:40:15.122Z,7.18
2023-02-24T11:43:07.474Z,11.68
2023-02-24T11:45:41.018Z,9.10
2023-02-24T11:48:17.300Z,12.93
2023-02-24T11:50:49.964Z,8.37
2023-02-24T11:53:34.719Z,7.45
2023-02-24T11:56:05.025Z,9.57
2023-02-24T11:59:04.295Z,7.67
2023-02-24T12:01:50.809Z,10.13
2023-02-24T12:04:39.838Z,10.20
2023-02-24T12:07:44.234Z,8.88
2023-02-24T12:10:25.438Z,7.18
2023-02-24T12:13:04.403Z,11.60
2023-02-24T12:15:40.215Z,9.90
2023-02-24T12:18:26.201Z,9.10
2023-02-24T12:21:00.557Z,8.40
2023-02-24T12:23:37.553Z,7.68
2023-02-24T12:26:25.517Z,7.88
2023-02-24T12:29:16.293Z,6.03
2023-02-24T12:31:53.448Z,4.35
2023-02-24T12:35:07.052Z,4.50
2023-02-24T12:38:11.160Z,7.47
2023-02-24T12:40:56.943Z,7.15
2023-02-24T12:43:38.794Z,13.13
2023-02-24T12:46:24.048Z,7.38
2023-02-24T12:49:42.725Z,8.00
2023-02-24T12:52:34.060Z,6.32
2023-02-24T12:55:11.418Z,12.63
2023-02-24T12:57:50.479Z,7.78
2023-02-24T13:00:41.954Z,9.13
2023-02-24T13:03:45.331Z,9.23
2023-02-24T13:06:24.282Z,5.15
2023-02-24T13:09:00.445Z,8.82
2023-02-24T13:11:43.540Z,7.95
2023-02-24T13:14:26.249Z,9.10
2023-02-24T13:17:03.891Z,9.10
2023-02-24T13:19:31.217Z,8.70
2023-02-24T13:22:13.361Z,5.07
2023-02-24T13:24:43.022Z,5.78
2023-02-24T13:27:12.986Z,5.35
2023-02-24T13:29:48.638Z,6.30
2023-02-24T13:32:40.689Z,6.65
2023-02-24T13:35:16.977Z,7.03
2023-02-24T13:37:48.329Z,7.80
2023-02-24T13:40:17.932Z,6.78
2023-02-24T13:42:59.123Z,5.05
2023-02-24T13:45:34.864Z,10.95
2023-02-24T13:48:20.605Z,4.10
2023-02-24T13:51:12.380Z,9.95
2023-02-24T13:54:00.994Z,8.15
2023-02-24T13:56:34.191Z,6.57
2023-02-24T13:59:19.930Z,10.15
2023-02-24T14:02:03.210Z,11.02
2023-02-24T14:04:35.939Z,7.45
2023-02-24T14:07:08.856Z,9.18
2023-02-24T14:09:43.126Z,8.15
2023-02-24T14:12:20.287Z,5.80
2023-02-24T14:14:49.279Z,7.30
2023-02-24T14:17:34.528Z,6.72
2023-02-24T14:20:09.641Z,7.03
2023-02-24T14:22:47.958Z,5.72
2023-02-24T14:25:16.268Z,8.35
2023-02-24T14:27:49.582Z,7.78
2023-02-24T14:30:32.944Z,5.30
2023-02-24T14:33:00.523Z,8.15
2023-02-24T14:35:33.283Z,5.00
2023-02-24T14:38:02.266Z,11.00
2023-02-24T14:40:30.042Z,4.72
2023-02-24T14:42:57.778Z,9.65
2023-02-24T14:45:27.434Z,6.22
2023-02-24T14:47:56.514Z,6.95
2023-02-24T14:50:31.298Z,6.05
2023-02-24T14:53:10.577Z,6.05
2023-02-24T14:55:41.977Z,5.10
2023-02-24T14:58:30.396Z,4.80
2023-02-24T15:01:06.875Z,9.00
2023-02-24T15:03:37.717Z,5.03
2023-02-24T15:06:15.603Z,6.13
2023-02-24T15:08:46.460Z,5.07
2023-02-24T15:11:16.383Z,6.18
2023-02-24T15:13:50.116Z,6.13
2023-02-24T15:16:28.303Z,7.30
2023-02-24T15:19:01.526Z,5.15
2023-02-24T15:21:29.178Z,6.20
2023-02-24T15:24:05.190Z,6.05
2023-02-24T15:26:34.308Z,8.25
2023-02-24T15:29:12.049Z,8.05
2023-02-24T15:31:39.507Z,5.03
2023-02-24T15:34:07.017Z,7.60
2023-02-24T15:36:36.133Z,10.85
2023-02-24T15:39:06.738Z,7.25
2023-02-24T15:41:46.170Z,8.85
2023-02-24T15:44:58.724Z,7.43
2023-02-24T15:47:40.117Z,5.18
2023-02-24T15:50:07.558Z,7.15
2023-02-24T15:52:34.841Z,6.35
2023-02-24T15:55:02.681Z,5.53
2023-02-24T15:57:31.511Z,6.45
2023-02-24T15:59:59.308Z,7.38
2023-02-24T16:02:26.846Z,7.47
2023-02-24T16:04:54.236Z,6.72
2023-02-24T16:07:24.972Z,6.38
2023-02-24T16:09:54.346Z,8.90
2023-02-24T16:12:34.069Z,10.00
2023-02-24T16:15:03.959Z,5.97
2023-02-24T16:17:35.772Z,7.60
2023-02-24T16:20:08.570Z,8.82
2023-02-24T16:22:36.148Z,7.65
2023-02-24T16:25:03.662Z,6.90
2023-02-24T16:27:31.423Z,7.95
2023-02-24T16:29:58.638Z,5.70
2023-02-24T16:32:28.996Z,6.63
2023-02-24T16:34:57.225Z,6.40
2023-02-24T16:37:28.963Z,5.05
2023-02-24T16:39:58.463Z,6.55
2023-02-24T16:42:25.704Z,7.85
2023-02-24T16:44:53.038Z,7.38
2023-02-24T16:47:23.145Z,8.05
2023-02-24T16:49:51.151Z,4.55
2023-02-24T16:52:19.345Z,6.53
2023-02-24T16:54:48.353Z,6.65
2023-02-24T16:57:16.158Z,6.93
2023-02-24T16:59:43.489Z,8.00
2023-02-24T17:02:19.642Z,9.32
2023-02-24T17:04:46.655Z,7.93
2023-02-24T17:07:16.144Z,6.25
2023-02-24T17:09:43.111Z,7.90
2023-02-24T17:12:13.537Z,11.52
2023-02-24T17:14:40.471Z,6.82
2023-02-24T17:17:07.898Z,9.43
2023-02-24T17:19:35.275Z,6.40
2023-02-24T17:22:02.553Z,11.13
2023-02-24T17:24:29.994Z,9.90
2023-02-24T17:26:59.833Z,8.05
2023-02-24T17:29:27.400Z,13.18
2023-02-24T17:31:54.395Z,11.02
2023-02-24T17:34:23.962Z,8.40
2023-02-24T17:36:51.432Z,9.97
2023-02-24T17:39:18.725Z,7.22
2023-02-24T17:41:45.985Z,12.55
2023-02-24T17:44:12.976Z,10.75
2023-02-24T17:46:40.115Z,9.02
2023-02-24T17:49:07.344Z,12.52
2023-02-24T17:51:35.071Z,8.40
2023-02-24T17:54:03.048Z,11.40
2023-02-24T17:56:30.611Z,12.98
2023-02-24T17:59:00.968Z,9.55
2023-02-24T18:01:28.523Z,11.93
2023-02-24T18:03:59.121Z,14.88
2023-02-24T18:06:26.568Z,8.65
2023-02-24T18:08:54.680Z,8.13
2023-02-24T18:11:21.671Z,8.38
2023-02-24T18:13:52.565Z,10.25
2023-02-24T18:16:20.359Z,9.63
2023-02-24T18:18:48.048Z,9.85
2023-02-24T18:21:15.069Z,10.68
2023-02-24T18:23:42.358Z,8.93
2023-02-24T18:26:11.361Z,9.98
2023-02-24T18:28:39.081Z,9.05
2023-02-24T18:31:15.550Z,8.52
2023-02-24T18:33:43.207Z,8.68
2023-02-24T18:36:10.995Z,8.75
2023-02-24T18:38:38.176Z,8.75
2023-02-24T18:41:11.385Z,11.10
2023-02-24T18:43:38.662Z,9.38
2023-02-24T18:46:07.871Z,12.57
2023-02-24T18:48:35.309Z,12.18
2023-02-24T18:51:02.806Z,11.75
2023-02-24T18:53:36.781Z,11.43
2023-02-24T18:56:09.302Z,13.23
2023-02-24T18:58:37.177Z,9.35
2023-02-24T19:01:13.394Z,12.25
2023-02-24T19:03:41.296Z,15.10
2023-02-24T19:06:09.395Z,12.68
2023-02-24T19:08:37.081Z,18.63
2023-02-24T19:11:23.479Z,15.77
2023-02-24T19:13:50.494Z,15.65
2023-02-24T19:16:18.954Z,15.68
2023-02-24T19:18:49.453Z,13.95
2023-02-24T19:21:16.743Z,19.30
2023-02-24T19:23:43.863Z,15.38
2023-02-24T19:26:22.662Z,14.35
2023-02-24T19:28:50.090Z,11.88
2023-02-24T19:31:20.306Z,14.27
2023-02-24T19:36:18.542Z,13.82
2023-02-24T19:38:48.486Z,13.88
2023-02-24T19:41:15.785Z,14.13
2023-02-24T19:43:43.381Z,14.40
2023-02-24T19:46:12.520Z,10.73
2023-02-24T19:48:40.595Z,13.60
2023-02-24T19:51:11.085Z,15.07
2023-02-24T19:53:38.597Z,12.63
2023-02-24T19:56:06.840Z,11.52
2023-02-24T19:58:36.173Z,10.88
2023-02-24T20:01:11.757Z,12.45
2023-02-24T20:03:40.701Z,9.55
2023-02-24T20:06:33.332Z,8.90
2023-02-24T20:09:00.737Z,10.68
2023-02-24T20:11:31.103Z,8.77
2023-02-24T20:16:25.858Z,8.20
2023-02-24T20:18:55.300Z,5.90
2023-02-24T20:21:22.595Z,7.22
2023-02-24T20:23:49.761Z,6.90
2023-02-24T20:26:17.468Z,8.02
2023-02-24T20:28:46.039Z,6.57
2023-02-24T20:31:17.649Z,7.32
2023-02-24T20:33:45.204Z,5.60
2023-02-24T20:36:15.631Z,5.47
2023-02-24T20:41:10.046Z,7.10
2023-02-24T20:43:37.365Z,11.32
2023-02-24T20:46:24.398Z,7.65
2023-02-24T20:48:55.040Z,9.07
2023-02-24T20:53:57.750Z,6.25
2023-02-24T20:56:29.379Z,7.35
2023-02-24T20:59:02.294Z,12.43
2023-02-24T21:01:31.093Z,3.92
2023-02-24T21:03:58.865Z,10.13
2023-02-24T21:06:26.518Z,10.68
2023-02-24T21:08:53.727Z,5.80
2023-02-24T21:11:21.277Z,17.98
2023-02-24T21:13:49.773Z,8.43
2023-02-24T21:16:18.584Z,9.48
2023-02-24T21:18:47.943Z,9.57
2023-02-24T21:21:15.695Z,8.18
2023-02-24T21:23:43.595Z,7.65
2023-02-24T21:26:11.354Z,16.80
2023-02-24T21:28:40.363Z,7.18
2023-02-24T21:31:18.365Z,8.60
2023-02-24T21:33:45.806Z,6.78
2023-02-24T21:36:14.827Z,6.43
2023-02-24T21:38:42.795Z,8.02
2023-02-24T21:41:14.800Z,5.18
2023-02-24T21:43:42.792Z,8.50
2023-02-24T21:46:11.402Z,3.53
2023-02-24T21:48:40.619Z,4.50
2023-02-24T21:51:09.920Z,7.22
2023-02-24T21:53:39.572Z,7.03
2023-02-24T21:56:17.552Z,16.40
2023-02-24T21:58:50.477Z,13.93
2023-02-24T22:01:26.941Z,9.30
2023-02-24T22:03:59.423Z,9.50
2023-02-24T22:06:31.347Z,13.63
2023-02-24T22:08:58.968Z,9.35
2023-02-24T22:11:26.127Z,12.30
2023-02-24T22:13:53.438Z,12.25
2023-02-24T22:16:22.669Z,10.15
2023-02-24T22:18:51.203Z,11.23
2023-02-24T22:21:20.929Z,21.45
2023-02-24T22:23:51.024Z,15.48
2023-02-24T22:26:19.579Z,23.63
2023-02-24T22:28:47.497Z,15.63
2023-02-24T22:31:17.553Z,18.73
2023-02-24T22:33:45.004Z,12.35
2023-02-24T22:36:17.416Z,20.45
2023-02-24T22:38:45.735Z,24.30
2023-02-24T22:41:18.509Z,14.43
2023-02-24T22:43:45.538Z,18.20
2023-02-24T22:46:15.229Z,17.52
2023-02-24T22:48:42.656Z,25.23
2023-02-24T22:51:11.596Z,23.98
2023-02-24T22:53:41.669Z,12.90
2023-02-24T22:56:11.761Z,20.77
2023-02-24T22:58:39.173Z,21.27
2023-02-24T23:01:32.613Z,19.10
2023-02-24T23:04:01.130Z,17.42
2023-02-24T23:06:28.823Z,21.70
2023-02-24T23:08:57.957Z,17.38
2023-02-24T23:11:32.492Z,18.38
2023-02-24T23:14:02.445Z,32.25
2023-02-24T23:16:33.052Z,17.92
2023-02-24T23:19:04.348Z,26.15
2023-02-24T23:21:40.106Z,15.52
2023-02-24T23:24:08.973Z,18.45
2023-02-24T23:26:38.602Z,16.77
2023-02-24T23:29:06.282Z,18.90
2023-02-24T23:31:33.746Z,9.75
2023-02-24T23:34:02.192Z,11.60
2023-02-24T23:36:29.976Z,18.67
2023-02-24T23:38:57.348Z,13.75
2023-02-24T23:41:24.251Z,20.17
2023-02-24T23:43:51.556Z,17.92
2023-02-24T23:46:18.940Z,12.52
2023-02-24T23:48:46.055Z,19.67
2023-02-24T23:51:14.207Z,10.80
2023-02-24T23:53:43.169Z,13.95
2023-02-24T23:56:30.428Z,27.35
2023-02-24T23:58:58.945Z,26.13
